Airfield :







YOU CAN JOIN US ON...

 
LOGIN :

Register | Disclaimer

   EN    FR    IT 

 









Legend :    VFR   Marginal VFR   IFR   Intensive IFR   Very Intensive IFR
Visi :
Ceiling :
>= 8 km
>= 3000ft
5 to 8 km
1000 to 3000 ft
1500m to 5 km
500 to 1000 ft
800 to 1500m
200 to 500 ft
< 800m
< 200 ft
Symbols :   Thunderstorms  Fog  Heavy snow  Heavy precipitations  Wind > 20 kt






- Airport Elevation : 522 ft
- IATA code : YBG


CYBG - CFB Bagotville

CURRENT METAR :
  • 011600Z 08008KT 4SM -SN FEW010 OVC030 02/M00 A3004 RMK CF2SC6 VIS VRB 3-5 SLP179

EXPIRED METARs :
  • 011500Z 09005KT 2SM -SN OVC022 01/M00 A3005 RMK SC8 VIS VRB 1 1/2-2 1/2 SUN DIMLY VISBL SLP184
  • 011415Z 06004KT 2 1/2SM -SN SCT015 OVC030 01/M01 A3005 RMK CF3SC5 VIS VRB 1 1/2-4 SLP185
  • 011400Z 07003KT 5SM -SN SCT015 BKN032 OVC050 01/M01 A3005 RMK CF3SC3SC2 VIS VRB 3-7 SUN DIMLY VISBL SLP186
  • 011343Z 08003KT 4SM -SHSN SCT015 OVC032 01/M01 A3006 RMK CF3SC5 VIS VRB 3-5 SLP187

TAF AMD TAF CYBG
Valid from the 01 at 12:00 until the 02 at 12:00 UTC


011231Z 0112/0212 VRB03KT P6SM SCT015 OVC030
TEMPO 0112/0117 2SM -SHSN BKN015 OVC030
BECMG 0112/0114 09008KT
FM011700 09008G18KT P6SM SCT015 OVC030
TEMPO 0117/0121 2SM -RASN BR BKN015 OVC030
FM012100 VRB03KT 2SM -SN BR OVC008
TEMPO 0121/0203 5SM -SN SCT008 OVC012
FM020300 27005KT 2SM -SN OVC005
PROB30 0203/0208 2SM -FZDZ BR
FM020800 27005KT 2SM -SN OVC010 RMK NXT FCST BY 011800Z



MET'MAP, your aeronautical weather chart ! - Copyright ORBIFLY December 2007 - Disclaimer

ORBIFLY MET'MAP TEAM :

Programming & Development : Alexandra Zaïnal
Concept & original design : Baudouin d'Aumeries
Assistance for programming : Marc-Olivier Méhu
Technical & hardware support : Manuel Goepfert

Contact : metmap@orbifly.com




SOURCES & CREDITS :

   NOAA